sensor_id;sensor_type;location;lat;lon;timestamp;P1;durP1;ratioP1;P2;durP2;ratioP2
16393;SDS011;8306;51.128;4.476;2023-03-08T00:00:17;20.40;;;18.27;;
16393;SDS011;8306;51.128;4.476;2023-03-08T00:02:42;21.63;;;19.37;;
16393;SDS011;8306;51.128;4.476;2023-03-08T00:05:09;21.03;;;19.03;;
16393;SDS011;8306;51.128;4.476;2023-03-08T00:07:36;20.90;;;19.03;;
16393;SDS011;8306;51.128;4.476;2023-03-08T00:10:02;20.80;;;18.63;;
16393;SDS011;8306;51.128;4.476;2023-03-08T00:12:28;20.77;;;18.87;;
16393;SDS011;8306;51.128;4.476;2023-03-08T00:14:55;21.07;;;18.90;;
16393;SDS011;8306;51.128;4.476;2023-03-08T00:17:22;20.80;;;18.70;;
16393;SDS011;8306;51.128;4.476;2023-03-08T00:19:49;18.60;;;17.10;;
16393;SDS011;8306;51.128;4.476;2023-03-08T00:22:15;19.30;;;17.60;;
16393;SDS011;8306;51.128;4.476;2023-03-08T00:24:42;18.73;;;17.20;;
16393;SDS011;8306;51.128;4.476;2023-03-08T00:27:08;18.37;;;16.87;;
16393;SDS011;8306;51.128;4.476;2023-03-08T00:29:35;18.10;;;16.70;;
16393;SDS011;8306;51.128;4.476;2023-03-08T00:32:01;18.77;;;17.30;;
16393;SDS011;8306;51.128;4.476;2023-03-08T00:34:28;18.70;;;17.20;;
16393;SDS011;8306;51.128;4.476;2023-03-08T00:36:54;19.47;;;17.77;;
16393;SDS011;8306;51.128;4.476;2023-03-08T00:39:21;17.50;;;16.10;;
16393;SDS011;8306;51.128;4.476;2023-03-08T00:41:47;19.63;;;17.93;;
16393;SDS011;8306;51.128;4.476;2023-03-08T00:44:14;21.87;;;20.13;;
16393;SDS011;8306;51.128;4.476;2023-03-08T00:46:40;25.57;;;22.90;;
16393;SDS011;8306;51.128;4.476;2023-03-08T00:49:07;22.33;;;20.47;;
16393;SDS011;8306;51.128;4.476;2023-03-08T00:51:33;23.43;;;21.50;;
16393;SDS011;8306;51.128;4.476;2023-03-08T00:54:00;22.13;;;20.33;;
16393;SDS011;8306;51.128;4.476;2023-03-08T00:56:26;21.27;;;19.47;;
16393;SDS011;8306;51.128;4.476;2023-03-08T00:58:53;22.43;;;20.43;;
16393;SDS011;8306;51.128;4.476;2023-03-08T01:01:19;32.30;;;28.90;;
16393;SDS011;8306;51.128;4.476;2023-03-08T01:03:46;24.43;;;22.43;;
16393;SDS011;8306;51.128;4.476;2023-03-08T01:06:13;27.70;;;25.20;;
16393;SDS011;8306;51.128;4.476;2023-03-08T01:08:39;26.53;;;23.80;;
16393;SDS011;8306;51.128;4.476;2023-03-08T01:11:05;21.87;;;19.90;;
16393;SDS011;8306;51.128;4.476;2023-03-08T01:13:32;19.30;;;17.80;;
16393;SDS011;8306;51.128;4.476;2023-03-08T01:15:58;18.87;;;17.30;;
16393;SDS011;8306;51.128;4.476;2023-03-08T01:18:25;22.77;;;20.60;;
16393;SDS011;8306;51.128;4.476;2023-03-08T01:20:58;22.23;;;19.30;;
16393;SDS011;8306;51.128;4.476;2023-03-08T01:23:20;20.23;;;18.23;;
16393;SDS011;8306;51.128;4.476;2023-03-08T01:25:47;21.37;;;19.27;;
16393;SDS011;8306;51.128;4.476;2023-03-08T01:28:13;19.10;;;17.40;;
16393;SDS011;8306;51.128;4.476;2023-03-08T01:30:40;22.43;;;20.17;;
16393;SDS011;8306;51.128;4.476;2023-03-08T01:33:06;22.33;;;20.03;;
16393;SDS011;8306;51.128;4.476;2023-03-08T01:35:33;25.97;;;21.30;;
16393;SDS011;8306;51.128;4.476;2023-03-08T01:37:59;25.17;;;22.23;;
16393;SDS011;8306;51.128;4.476;2023-03-08T01:40:26;21.73;;;19.70;;
16393;SDS011;8306;51.128;4.476;2023-03-08T01:42:52;30.47;;;24.07;;
16393;SDS011;8306;51.128;4.476;2023-03-08T01:48:19;25.87;;;23.10;;
16393;SDS011;8306;51.128;4.476;2023-03-08T01:50:45;41.87;;;26.80;;
16393;SDS011;8306;51.128;4.476;2023-03-08T01:53:12;43.00;;;28.10;;
16393;SDS011;8306;51.128;4.476;2023-03-08T01:55:38;51.90;;;29.30;;
16393;SDS011;8306;51.128;4.476;2023-03-08T01:58:05;45.33;;;29.27;;
16393;SDS011;8306;51.128;4.476;2023-03-08T02:00:31;32.40;;;26.60;;
16393;SDS011;8306;51.128;4.476;2023-03-08T02:03:07;48.83;;;30.77;;
16393;SDS011;8306;51.128;4.476;2023-03-08T02:05:30;28.80;;;25.90;;
16393;SDS011;8306;51.128;4.476;2023-03-08T02:07:57;39.70;;;28.87;;
16393;SDS011;8306;51.128;4.476;2023-03-08T02:10:23;36.60;;;27.87;;
16393;SDS011;8306;51.128;4.476;2023-03-08T02:12:49;45.00;;;28.50;;
16393;SDS011;8306;51.128;4.476;2023-03-08T02:15:17;45.57;;;28.93;;
16393;SDS011;8306;51.128;4.476;2023-03-08T02:17:43;47.00;;;29.60;;
16393;SDS011;8306;51.128;4.476;2023-03-08T02:20:11;38.90;;;27.13;;
16393;SDS011;8306;51.128;4.476;2023-03-08T02:22:42;42.57;;;28.40;;
16393;SDS011;8306;51.128;4.476;2023-03-08T02:25:11;34.37;;;26.93;;
16393;SDS011;8306;51.128;4.476;2023-03-08T02:27:34;39.07;;;27.57;;
16393;SDS011;8306;51.128;4.476;2023-03-08T02:30:00;28.17;;;25.03;;
16393;SDS011;8306;51.128;4.476;2023-03-08T02:32:27;27.47;;;24.57;;
16393;SDS011;8306;51.128;4.476;2023-03-08T02:34:53;36.83;;;27.83;;
16393;SDS011;8306;51.128;4.476;2023-03-08T02:37:20;41.83;;;27.97;;
16393;SDS011;8306;51.128;4.476;2023-03-08T02:39:47;40.57;;;28.43;;
16393;SDS011;8306;51.128;4.476;2023-03-08T02:42:13;34.43;;;26.07;;
16393;SDS011;8306;51.128;4.476;2023-03-08T02:44:40;34.83;;;25.60;;
16393;SDS011;8306;51.128;4.476;2023-03-08T02:47:06;27.23;;;24.33;;
16393;SDS011;8306;51.128;4.476;2023-03-08T02:49:33;30.70;;;25.20;;
16393;SDS011;8306;51.128;4.476;2023-03-08T02:51:59;26.97;;;24.10;;
16393;SDS011;8306;51.128;4.476;2023-03-08T02:54:26;26.87;;;23.67;;
16393;SDS011;8306;51.128;4.476;2023-03-08T02:56:53;29.20;;;22.90;;
16393;SDS011;8306;51.128;4.476;2023-03-08T02:59:19;42.00;;;27.43;;
16393;SDS011;8306;51.128;4.476;2023-03-08T03:01:46;36.23;;;24.77;;
16393;SDS011;8306;51.128;4.476;2023-03-08T03:04:12;33.23;;;25.10;;
16393;SDS011;8306;51.128;4.476;2023-03-08T03:06:39;26.13;;;23.10;;
16393;SDS011;8306;51.128;4.476;2023-03-08T03:09:05;32.80;;;24.33;;
16393;SDS011;8306;51.128;4.476;2023-03-08T03:11:32;35.67;;;24.77;;
16393;SDS011;8306;51.128;4.476;2023-03-08T03:13:58;25.63;;;22.83;;
16393;SDS011;8306;51.128;4.476;2023-03-08T03:16:25;47.20;;;26.90;;
16393;SDS011;8306;51.128;4.476;2023-03-08T03:18:54;33.63;;;24.67;;
16393;SDS011;8306;51.128;4.476;2023-03-08T03:21:21;33.00;;;24.47;;
16393;SDS011;8306;51.128;4.476;2023-03-08T03:23:47;36.83;;;24.53;;
16393;SDS011;8306;51.128;4.476;2023-03-08T03:26:18;38.83;;;24.90;;
16393;SDS011;8306;51.128;4.476;2023-03-08T03:28:43;31.27;;;25.30;;
16393;SDS011;8306;51.128;4.476;2023-03-08T03:31:10;37.87;;;24.97;;
16393;SDS011;8306;51.128;4.476;2023-03-08T03:33:36;31.60;;;24.13;;
16393;SDS011;8306;51.128;4.476;2023-03-08T03:36:02;31.33;;;23.43;;
16393;SDS011;8306;51.128;4.476;2023-03-08T03:38:29;36.50;;;24.87;;
16393;SDS011;8306;51.128;4.476;2023-03-08T03:41:08;30.33;;;22.10;;
16393;SDS011;8306;51.128;4.476;2023-03-08T03:43:34;29.00;;;20.83;;
16393;SDS011;8306;51.128;4.476;2023-03-08T03:46:01;26.67;;;19.47;;
16393;SDS011;8306;51.128;4.476;2023-03-08T03:48:26;30.20;;;20.90;;
16393;SDS011;8306;51.128;4.476;2023-03-08T03:50:56;36.13;;;22.67;;
16393;SDS011;8306;51.128;4.476;2023-03-08T03:53:26;27.43;;;20.23;;
16393;SDS011;8306;51.128;4.476;2023-03-08T03:55:51;28.47;;;20.87;;
16393;SDS011;8306;51.128;4.476;2023-03-08T03:58:18;38.97;;;22.20;;
16393;SDS011;8306;51.128;4.476;2023-03-08T04:00:44;23.53;;;19.30;;
16393;SDS011;8306;51.128;4.476;2023-03-08T04:03:11;20.40;;;18.23;;
16393;SDS011;8306;51.128;4.476;2023-03-08T04:05:37;28.53;;;19.97;;
16393;SDS011;8306;51.128;4.476;2023-03-08T04:08:05;37.53;;;21.37;;
16393;SDS011;8306;51.128;4.476;2023-03-08T04:10:30;29.60;;;21.43;;
16393;SDS011;8306;51.128;4.476;2023-03-08T04:12:57;27.80;;;20.30;;
16393;SDS011;8306;51.128;4.476;2023-03-08T04:15:23;19.37;;;17.20;;
16393;SDS011;8306;51.128;4.476;2023-03-08T04:17:50;26.97;;;20.23;;
16393;SDS011;8306;51.128;4.476;2023-03-08T04:20:16;39.60;;;21.07;;
16393;SDS011;8306;51.128;4.476;2023-03-08T04:22:43;32.53;;;19.20;;
16393;SDS011;8306;51.128;4.476;2023-03-08T04:25:10;20.97;;;15.73;;
16393;SDS011;8306;51.128;4.476;2023-03-08T04:27:36;24.97;;;16.10;;
16393;SDS011;8306;51.128;4.476;2023-03-08T04:30:03;23.60;;;16.57;;
16393;SDS011;8306;51.128;4.476;2023-03-08T04:32:32;17.10;;;15.33;;
16393;SDS011;8306;51.128;4.476;2023-03-08T04:34:59;26.47;;;17.17;;
16393;SDS011;8306;51.128;4.476;2023-03-08T04:37:25;27.67;;;18.27;;
16393;SDS011;8306;51.128;4.476;2023-03-08T04:39:52;25.27;;;16.17;;
16393;SDS011;8306;51.128;4.476;2023-03-08T04:42:18;28.73;;;18.00;;
16393;SDS011;8306;51.128;4.476;2023-03-08T04:44:44;25.40;;;18.03;;
16393;SDS011;8306;51.128;4.476;2023-03-08T04:47:11;27.50;;;17.80;;
16393;SDS011;8306;51.128;4.476;2023-03-08T04:49:37;22.07;;;17.67;;
16393;SDS011;8306;51.128;4.476;2023-03-08T04:52:04;30.73;;;18.00;;
16393;SDS011;8306;51.128;4.476;2023-03-08T04:54:30;31.13;;;18.43;;
16393;SDS011;8306;51.128;4.476;2023-03-08T04:56:57;26.20;;;18.23;;
16393;SDS011;8306;51.128;4.476;2023-03-08T04:59:23;31.33;;;20.63;;
16393;SDS011;8306;51.128;4.476;2023-03-08T05:01:50;24.00;;;17.70;;
16393;SDS011;8306;51.128;4.476;2023-03-08T05:04:16;32.33;;;19.60;;
16393;SDS011;8306;51.128;4.476;2023-03-08T05:06:43;29.63;;;17.10;;
16393;SDS011;8306;51.128;4.476;2023-03-08T05:09:10;34.10;;;17.97;;
16393;SDS011;8306;51.128;4.476;2023-03-08T05:11:36;28.20;;;16.97;;
16393;SDS011;8306;51.128;4.476;2023-03-08T05:14:03;17.93;;;14.17;;
16393;SDS011;8306;51.128;4.476;2023-03-08T05:16:29;20.57;;;14.23;;
16393;SDS011;8306;51.128;4.476;2023-03-08T05:18:56;19.83;;;14.03;;
16393;SDS011;8306;51.128;4.476;2023-03-08T05:21:22;19.10;;;14.37;;
16393;SDS011;8306;51.128;4.476;2023-03-08T05:23:49;16.87;;;13.40;;
16393;SDS011;8306;51.128;4.476;2023-03-08T05:26:15;18.20;;;13.00;;
16393;SDS011;8306;51.128;4.476;2023-03-08T05:28:42;18.80;;;12.90;;
16393;SDS011;8306;51.128;4.476;2023-03-08T05:33:38;13.83;;;12.27;;
16393;SDS011;8306;51.128;4.476;2023-03-08T05:36:04;12.83;;;11.17;;
16393;SDS011;8306;51.128;4.476;2023-03-08T05:38:30;14.30;;;10.33;;
16393;SDS011;8306;51.128;4.476;2023-03-08T05:41:00;15.07;;;11.47;;
16393;SDS011;8306;51.128;4.476;2023-03-08T05:43:26;11.87;;;9.63;;
16393;SDS011;8306;51.128;4.476;2023-03-08T05:45:56;9.20;;;8.40;;
16393;SDS011;8306;51.128;4.476;2023-03-08T05:48:19;9.90;;;8.57;;
16393;SDS011;8306;51.128;4.476;2023-03-08T05:50:45;8.50;;;7.70;;
16393;SDS011;8306;51.128;4.476;2023-03-08T05:53:12;11.20;;;8.70;;
16393;SDS011;8306;51.128;4.476;2023-03-08T05:55:38;7.37;;;6.30;;
16393;SDS011;8306;51.128;4.476;2023-03-08T05:58:05;7.97;;;7.17;;
16393;SDS011;8306;51.128;4.476;2023-03-08T06:00:31;10.23;;;6.90;;
16393;SDS011;8306;51.128;4.476;2023-03-08T06:02:58;13.13;;;7.87;;
16393;SDS011;8306;51.128;4.476;2023-03-08T06:05:24;7.87;;;7.10;;
16393;SDS011;8306;51.128;4.476;2023-03-08T06:07:51;8.83;;;7.60;;
16393;SDS011;8306;51.128;4.476;2023-03-08T06:10:17;8.00;;;7.20;;
16393;SDS011;8306;51.128;4.476;2023-03-08T06:12:44;10.57;;;9.47;;
16393;SDS011;8306;51.128;4.476;2023-03-08T06:15:10;7.30;;;6.60;;
16393;SDS011;8306;51.128;4.476;2023-03-08T06:17:37;10.37;;;7.70;;
16393;SDS011;8306;51.128;4.476;2023-03-08T06:20:03;8.60;;;7.73;;
16393;SDS011;8306;51.128;4.476;2023-03-08T06:22:30;9.13;;;8.00;;
16393;SDS011;8306;51.128;4.476;2023-03-08T06:24:56;8.47;;;7.67;;
16393;SDS011;8306;51.128;4.476;2023-03-08T06:27:23;12.00;;;7.63;;
16393;SDS011;8306;51.128;4.476;2023-03-08T06:29:49;10.80;;;9.80;;
16393;SDS011;8306;51.128;4.476;2023-03-08T06:32:16;9.73;;;8.83;;
16393;SDS011;8306;51.128;4.476;2023-03-08T06:34:42;8.43;;;7.63;;
16393;SDS011;8306;51.128;4.476;2023-03-08T06:37:08;8.83;;;8.03;;
16393;SDS011;8306;51.128;4.476;2023-03-08T06:39:35;9.57;;;8.37;;
16393;SDS011;8306;51.128;4.476;2023-03-08T06:42:01;8.47;;;7.73;;
16393;SDS011;8306;51.128;4.476;2023-03-08T06:44:28;8.27;;;7.20;;
16393;SDS011;8306;51.128;4.476;2023-03-08T06:46:54;8.77;;;8.07;;
16393;SDS011;8306;51.128;4.476;2023-03-08T06:49:21;7.13;;;6.53;;
16393;SDS011;8306;51.128;4.476;2023-03-08T06:51:47;8.73;;;7.63;;
16393;SDS011;8306;51.128;4.476;2023-03-08T06:54:14;7.93;;;7.20;;
16393;SDS011;8306;51.128;4.476;2023-03-08T06:56:40;6.53;;;5.93;;
16393;SDS011;8306;51.128;4.476;2023-03-08T06:59:07;11.03;;;6.83;;
16393;SDS011;8306;51.128;4.476;2023-03-08T07:01:33;7.77;;;5.53;;
16393;SDS011;8306;51.128;4.476;2023-03-08T07:04:00;6.80;;;6.10;;
16393;SDS011;8306;51.128;4.476;2023-03-08T07:06:26;6.50;;;6.00;;
16393;SDS011;8306;51.128;4.476;2023-03-08T07:08:53;6.13;;;5.47;;
16393;SDS011;8306;51.128;4.476;2023-03-08T07:11:19;7.23;;;6.57;;
16393;SDS011;8306;51.128;4.476;2023-03-08T07:13:46;6.30;;;5.80;;
16393;SDS011;8306;51.128;4.476;2023-03-08T07:16:12;6.40;;;5.80;;
16393;SDS011;8306;51.128;4.476;2023-03-08T07:18:39;7.63;;;7.03;;
16393;SDS011;8306;51.128;4.476;2023-03-08T07:21:05;6.43;;;5.93;;
16393;SDS011;8306;51.128;4.476;2023-03-08T07:23:32;6.87;;;6.27;;
16393;SDS011;8306;51.128;4.476;2023-03-08T07:25:58;7.73;;;7.03;;
16393;SDS011;8306;51.128;4.476;2023-03-08T07:28:24;6.53;;;6.10;;
16393;SDS011;8306;51.128;4.476;2023-03-08T07:30:51;6.83;;;6.33;;
16393;SDS011;8306;51.128;4.476;2023-03-08T07:33:18;6.83;;;6.23;;
16393;SDS011;8306;51.128;4.476;2023-03-08T07:35:44;8.13;;;7.43;;
16393;SDS011;8306;51.128;4.476;2023-03-08T07:38:11;6.93;;;6.33;;
16393;SDS011;8306;51.128;4.476;2023-03-08T07:40:37;7.47;;;6.87;;
16393;SDS011;8306;51.128;4.476;2023-03-08T07:43:03;7.00;;;6.40;;
16393;SDS011;8306;51.128;4.476;2023-03-08T07:45:30;6.70;;;6.20;;
16393;SDS011;8306;51.128;4.476;2023-03-08T07:47:56;9.17;;;7.23;;
16393;SDS011;8306;51.128;4.476;2023-03-08T07:50:23;7.30;;;6.70;;
16393;SDS011;8306;51.128;4.476;2023-03-08T07:52:49;8.67;;;8.00;;
16393;SDS011;8306;51.128;4.476;2023-03-08T07:55:16;10.07;;;9.20;;
16393;SDS011;8306;51.128;4.476;2023-03-08T07:57:42;8.67;;;7.97;;
16393;SDS011;8306;51.128;4.476;2023-03-08T08:00:09;8.67;;;8.07;;
16393;SDS011;8306;51.128;4.476;2023-03-08T08:02:35;9.80;;;9.00;;
16393;SDS011;8306;51.128;4.476;2023-03-08T08:05:02;9.47;;;8.77;;
16393;SDS011;8306;51.128;4.476;2023-03-08T08:07:28;11.97;;;11.00;;
16393;SDS011;8306;51.128;4.476;2023-03-08T08:09:55;9.30;;;8.70;;
16393;SDS011;8306;51.128;4.476;2023-03-08T08:12:21;11.53;;;10.63;;
16393;SDS011;8306;51.128;4.476;2023-03-08T08:14:50;9.47;;;8.77;;
16393;SDS011;8306;51.128;4.476;2023-03-08T08:17:20;10.10;;;9.40;;
16393;SDS011;8306;51.128;4.476;2023-03-08T08:19:46;11.07;;;10.23;;
16393;SDS011;8306;51.128;4.476;2023-03-08T08:22:12;10.40;;;9.70;;
16393;SDS011;8306;51.128;4.476;2023-03-08T08:24:39;11.17;;;10.27;;
16393;SDS011;8306;51.128;4.476;2023-03-08T08:27:05;10.73;;;9.83;;
16393;SDS011;8306;51.128;4.476;2023-03-08T08:29:32;10.17;;;9.37;;
16393;SDS011;8306;51.128;4.476;2023-03-08T08:31:58;9.50;;;8.80;;
16393;SDS011;8306;51.128;4.476;2023-03-08T08:34:25;9.83;;;9.23;;
16393;SDS011;8306;51.128;4.476;2023-03-08T08:36:51;9.17;;;8.57;;
16393;SDS011;8306;51.128;4.476;2023-03-08T08:39:17;10.70;;;10.00;;
16393;SDS011;8306;51.128;4.476;2023-03-08T08:41:44;10.50;;;9.73;;
16393;SDS011;8306;51.128;4.476;2023-03-08T08:44:10;11.17;;;10.37;;
16393;SDS011;8306;51.128;4.476;2023-03-08T08:46:37;11.73;;;10.83;;
16393;SDS011;8306;51.128;4.476;2023-03-08T08:49:03;11.80;;;11.00;;
16393;SDS011;8306;51.128;4.476;2023-03-08T08:51:30;11.97;;;11.07;;
16393;SDS011;8306;51.128;4.476;2023-03-08T08:53:56;11.00;;;10.27;;
16393;SDS011;8306;51.128;4.476;2023-03-08T08:56:24;12.20;;;11.30;;
16393;SDS011;8306;51.128;4.476;2023-03-08T08:58:49;10.43;;;9.63;;
16393;SDS011;8306;51.128;4.476;2023-03-08T09:01:20;12.60;;;11.70;;
16393;SDS011;8306;51.128;4.476;2023-03-08T09:03:45;10.90;;;10.13;;
16393;SDS011;8306;51.128;4.476;2023-03-08T09:06:13;11.37;;;10.57;;
16393;SDS011;8306;51.128;4.476;2023-03-08T09:08:39;11.70;;;10.93;;
16393;SDS011;8306;51.128;4.476;2023-03-08T09:11:06;11.17;;;10.37;;
16393;SDS011;8306;51.128;4.476;2023-03-08T09:13:32;12.03;;;11.13;;
16393;SDS011;8306;51.128;4.476;2023-03-08T09:15:58;11.00;;;10.23;;
16393;SDS011;8306;51.128;4.476;2023-03-08T09:18:25;10.80;;;10.10;;
16393;SDS011;8306;51.128;4.476;2023-03-08T09:20:51;11.07;;;10.33;;
16393;SDS011;8306;51.128;4.476;2023-03-08T09:23:18;13.00;;;12.10;;
16393;SDS011;8306;51.128;4.476;2023-03-08T09:25:44;10.83;;;10.03;;
16393;SDS011;8306;51.128;4.476;2023-03-08T09:28:11;11.13;;;10.33;;
16393;SDS011;8306;51.128;4.476;2023-03-08T09:30:37;11.63;;;10.83;;
16393;SDS011;8306;51.128;4.476;2023-03-08T09:33:03;11.17;;;10.47;;
16393;SDS011;8306;51.128;4.476;2023-03-08T09:35:30;10.97;;;10.17;;
16393;SDS011;8306;51.128;4.476;2023-03-08T09:37:57;10.60;;;9.90;;
16393;SDS011;8306;51.128;4.476;2023-03-08T09:40:24;10.47;;;9.77;;
16393;SDS011;8306;51.128;4.476;2023-03-08T09:42:50;11.03;;;10.23;;
16393;SDS011;8306;51.128;4.476;2023-03-08T09:50:28;10.83;;;10.13;;
16393;SDS011;8306;51.128;4.476;2023-03-08T09:53:09;11.37;;;10.57;;
16393;SDS011;8306;51.128;4.476;2023-03-08T09:55:35;10.77;;;9.97;;
16393;SDS011;8306;51.128;4.476;2023-03-08T09:58:04;10.37;;;9.67;;
16393;SDS011;8306;51.128;4.476;2023-03-08T10:00:31;10.23;;;9.53;;
16393;SDS011;8306;51.128;4.476;2023-03-08T10:13:30;11.30;;;10.60;;
16393;SDS011;8306;51.128;4.476;2023-03-08T10:21:15;12.10;;;11.30;;
16393;SDS011;8306;51.128;4.476;2023-03-08T10:23:41;12.00;;;11.20;;
16393;SDS011;8306;51.128;4.476;2023-03-08T10:26:09;12.67;;;11.87;;
16393;SDS011;8306;51.128;4.476;2023-03-08T10:28:37;12.50;;;11.70;;
16393;SDS011;8306;51.128;4.476;2023-03-08T10:31:37;13.20;;;12.30;;
16393;SDS011;8306;51.128;4.476;2023-03-08T10:33:44;12.43;;;11.63;;
16393;SDS011;8306;51.128;4.476;2023-03-08T10:36:18;14.07;;;13.13;;
16393;SDS011;8306;51.128;4.476;2023-03-08T10:38:43;13.80;;;12.90;;
16393;SDS011;8306;51.128;4.476;2023-03-08T10:43:43;13.97;;;13.07;;
16393;SDS011;8306;51.128;4.476;2023-03-08T10:46:10;13.40;;;12.60;;
16393;SDS011;8306;51.128;4.476;2023-03-08T10:48:31;13.47;;;12.47;;
16393;SDS011;8306;51.128;4.476;2023-03-08T10:50:59;13.43;;;12.53;;
16393;SDS011;8306;51.128;4.476;2023-03-08T10:53:24;13.20;;;12.30;;
16393;SDS011;8306;51.128;4.476;2023-03-08T10:55:51;13.67;;;12.77;;
16393;SDS011;8306;51.128;4.476;2023-03-08T11:00:56;13.93;;;13.03;;
16393;SDS011;8306;51.128;4.476;2023-03-08T11:03:23;14.80;;;13.80;;
16393;SDS011;8306;51.128;4.476;2023-03-08T11:05:56;13.80;;;12.90;;
16393;SDS011;8306;51.128;4.476;2023-03-08T11:08:31;15.80;;;14.80;;
16393;SDS011;8306;51.128;4.476;2023-03-08T11:11:04;15.93;;;14.83;;
16393;SDS011;8306;51.128;4.476;2023-03-08T11:13:29;15.27;;;14.27;;
16393;SDS011;8306;51.128;4.476;2023-03-08T11:16:01;15.63;;;14.50;;
16393;SDS011;8306;51.128;4.476;2023-03-08T11:18:32;15.30;;;14.30;;
16393;SDS011;8306;51.128;4.476;2023-03-08T11:21:01;16.63;;;15.53;;
16393;SDS011;8306;51.128;4.476;2023-03-08T11:23:48;17.77;;;16.57;;
16393;SDS011;8306;51.128;4.476;2023-03-08T11:26:00;17.43;;;16.30;;
16393;SDS011;8306;51.128;4.476;2023-03-08T11:28:31;16.53;;;15.43;;
16393;SDS011;8306;51.128;4.476;2023-03-08T11:36:35;15.67;;;14.67;;
16393;SDS011;8306;51.128;4.476;2023-03-08T11:39:16;15.50;;;14.40;;
16393;SDS011;8306;51.128;4.476;2023-03-08T11:41:48;14.90;;;13.73;;
16393;SDS011;8306;51.128;4.476;2023-03-08T11:44:30;14.23;;;13.33;;
16393;SDS011;8306;51.128;4.476;2023-03-08T11:52:28;16.77;;;15.67;;
16393;SDS011;8306;51.128;4.476;2023-03-08T11:57:49;18.73;;;17.47;;
16393;SDS011;8306;51.128;4.476;2023-03-08T12:00:19;18.83;;;17.53;;
16393;SDS011;8306;51.128;4.476;2023-03-08T12:02:44;19.00;;;17.60;;
16393;SDS011;8306;51.128;4.476;2023-03-08T12:07:51;20.03;;;18.43;;
16393;SDS011;8306;51.128;4.476;2023-03-08T12:13:03;21.27;;;19.77;;
16393;SDS011;8306;51.128;4.476;2023-03-08T12:18:04;22.13;;;20.30;;
16393;SDS011;8306;51.128;4.476;2023-03-08T12:20:29;22.00;;;20.50;;
16393;SDS011;8306;51.128;4.476;2023-03-08T12:25:29;24.23;;;22.33;;
16393;SDS011;8306;51.128;4.476;2023-03-08T12:28:03;22.73;;;21.03;;
16393;SDS011;8306;51.128;4.476;2023-03-08T12:33:33;23.07;;;21.27;;
16393;SDS011;8306;51.128;4.476;2023-03-08T12:36:04;24.57;;;22.77;;
16393;SDS011;8306;51.128;4.476;2023-03-08T12:38:31;24.90;;;22.90;;
16393;SDS011;8306;51.128;4.476;2023-03-08T12:41:02;23.67;;;21.97;;
16393;SDS011;8306;51.128;4.476;2023-03-08T12:43:29;24.10;;;22.40;;
16393;SDS011;8306;51.128;4.476;2023-03-08T12:48:28;23.53;;;21.77;;
16393;SDS011;8306;51.128;4.476;2023-03-08T12:51:04;24.13;;;22.33;;
16393;SDS011;8306;51.128;4.476;2023-03-08T12:53:37;23.70;;;22.00;;
16393;SDS011;8306;51.128;4.476;2023-03-08T12:56:33;26.10;;;24.00;;
16393;SDS011;8306;51.128;4.476;2023-03-08T12:59:02;23.77;;;21.77;;
16393;SDS011;8306;51.128;4.476;2023-03-08T13:01:40;24.87;;;23.07;;
16393;SDS011;8306;51.128;4.476;2023-03-08T13:04:24;24.37;;;22.47;;
16393;SDS011;8306;51.128;4.476;2023-03-08T13:09:29;24.20;;;22.27;;
16393;SDS011;8306;51.128;4.476;2023-03-08T13:12:09;24.43;;;22.53;;
16393;SDS011;8306;51.128;4.476;2023-03-08T13:14:27;25.67;;;23.57;;
16393;SDS011;8306;51.128;4.476;2023-03-08T13:20:15;23.83;;;21.83;;
16393;SDS011;8306;51.128;4.476;2023-03-08T13:22:57;25.63;;;23.37;;
16393;SDS011;8306;51.128;4.476;2023-03-08T13:28:12;23.90;;;22.10;;
16393;SDS011;8306;51.128;4.476;2023-03-08T13:30:37;25.77;;;23.73;;
16393;SDS011;8306;51.128;4.476;2023-03-08T13:33:13;24.83;;;22.93;;
16393;SDS011;8306;51.128;4.476;2023-03-08T13:35:38;28.60;;;25.83;;
16393;SDS011;8306;51.128;4.476;2023-03-08T13:38:04;26.50;;;24.23;;
16393;SDS011;8306;51.128;4.476;2023-03-08T13:40:31;27.37;;;24.83;;
16393;SDS011;8306;51.128;4.476;2023-03-08T13:42:58;26.97;;;24.83;;
16393;SDS011;8306;51.128;4.476;2023-03-08T13:45:24;25.67;;;23.67;;
16393;SDS011;8306;51.128;4.476;2023-03-08T13:47:50;25.63;;;23.50;;
16393;SDS011;8306;51.128;4.476;2023-03-08T13:50:22;30.53;;;27.60;;
16393;SDS011;8306;51.128;4.476;2023-03-08T13:52:43;27.07;;;24.80;;
16393;SDS011;8306;51.128;4.476;2023-03-08T13:55:13;29.30;;;26.70;;
16393;SDS011;8306;51.128;4.476;2023-03-08T13:57:39;30.63;;;28.10;;
16393;SDS011;8306;51.128;4.476;2023-03-08T14:02:50;30.50;;;27.83;;
16393;SDS011;8306;51.128;4.476;2023-03-08T14:05:17;32.30;;;28.70;;
16393;SDS011;8306;51.128;4.476;2023-03-08T14:07:43;31.50;;;28.37;;
16393;SDS011;8306;51.128;4.476;2023-03-08T14:10:12;30.83;;;27.97;;
16393;SDS011;8306;51.128;4.476;2023-03-08T14:12:38;31.37;;;28.50;;
16393;SDS011;8306;51.128;4.476;2023-03-08T14:15:05;32.60;;;29.23;;
16393;SDS011;8306;51.128;4.476;2023-03-08T14:17:33;31.43;;;28.27;;
16393;SDS011;8306;51.128;4.476;2023-03-08T14:20:01;33.40;;;29.73;;
16393;SDS011;8306;51.128;4.476;2023-03-08T14:22:28;30.43;;;27.47;;
16393;SDS011;8306;51.128;4.476;2023-03-08T14:24:57;31.63;;;28.43;;
16393;SDS011;8306;51.128;4.476;2023-03-08T14:29:46;33.17;;;29.63;;
16393;SDS011;8306;51.128;4.476;2023-03-08T14:34:40;34.07;;;30.43;;
16393;SDS011;8306;51.128;4.476;2023-03-08T14:39:48;37.97;;;33.40;;
16393;SDS011;8306;51.128;4.476;2023-03-08T14:42:21;42.90;;;33.97;;
16393;SDS011;8306;51.128;4.476;2023-03-08T14:44:49;38.13;;;31.67;;
16393;SDS011;8306;51.128;4.476;2023-03-08T14:47:24;40.97;;;32.77;;
16393;SDS011;8306;51.128;4.476;2023-03-08T14:52:19;36.53;;;32.63;;
16393;SDS011;8306;51.128;4.476;2023-03-08T14:54:46;36.77;;;31.10;;
16393;SDS011;8306;51.128;4.476;2023-03-08T14:57:17;37.57;;;32.43;;
16393;SDS011;8306;51.128;4.476;2023-03-08T14:59:42;42.80;;;33.63;;
16393;SDS011;8306;51.128;4.476;2023-03-08T15:02:09;34.37;;;29.87;;
16393;SDS011;8306;51.128;4.476;2023-03-08T15:04:37;44.87;;;34.27;;
16393;SDS011;8306;51.128;4.476;2023-03-08T15:07:04;50.23;;;34.83;;
16393;SDS011;8306;51.128;4.476;2023-03-08T15:09:30;44.80;;;34.40;;
16393;SDS011;8306;51.128;4.476;2023-03-08T15:11:57;43.37;;;33.20;;
16393;SDS011;8306;51.128;4.476;2023-03-08T15:14:23;51.53;;;35.87;;
16393;SDS011;8306;51.128;4.476;2023-03-08T15:16:50;49.90;;;35.73;;
16393;SDS011;8306;51.128;4.476;2023-03-08T15:19:16;49.03;;;34.93;;
16393;SDS011;8306;51.128;4.476;2023-03-08T15:21:42;49.83;;;36.07;;
16393;SDS011;8306;51.128;4.476;2023-03-08T15:24:12;58.97;;;38.00;;
16393;SDS011;8306;51.128;4.476;2023-03-08T15:26:35;49.13;;;34.90;;
16393;SDS011;8306;51.128;4.476;2023-03-08T15:29:02;49.17;;;34.13;;
16393;SDS011;8306;51.128;4.476;2023-03-08T15:31:29;55.23;;;37.77;;
16393;SDS011;8306;51.128;4.476;2023-03-08T15:33:55;48.07;;;34.43;;
16393;SDS011;8306;51.128;4.476;2023-03-08T15:36:21;49.90;;;35.57;;
16393;SDS011;8306;51.128;4.476;2023-03-08T15:38:48;46.73;;;33.30;;
16393;SDS011;8306;51.128;4.476;2023-03-08T15:41:15;61.67;;;36.97;;
16393;SDS011;8306;51.128;4.476;2023-03-08T15:43:41;51.13;;;34.30;;
16393;SDS011;8306;51.128;4.476;2023-03-08T15:46:10;44.77;;;32.03;;
16393;SDS011;8306;51.128;4.476;2023-03-08T15:48:36;56.17;;;34.43;;
16393;SDS011;8306;51.128;4.476;2023-03-08T15:51:03;45.73;;;32.83;;
16393;SDS011;8306;51.128;4.476;2023-03-08T15:53:29;44.40;;;32.67;;
16393;SDS011;8306;51.128;4.476;2023-03-08T15:55:56;51.63;;;35.33;;
16393;SDS011;8306;51.128;4.476;2023-03-08T15:58:22;47.63;;;33.93;;
16393;SDS011;8306;51.128;4.476;2023-03-08T16:00:49;76.03;;;40.20;;